Millenium Maverick — WCD2866 — position and weather

sailwx.info

Track history (hours):
 
Tides and Currents Weather Stations Pressure Air Temp Water Temp Dewpoint Dewpoint Depression Visibility Wind Speed Wind Dir Waves Ship Positions

Millenium Maverick

Last reported at 2017-Oct-29 13:39 UTC. Time now 2017-Nov-23 01:47 UTC.
Position N 33°43' W 118°14'.
Warning: this ship's position is 24 days out of date.

Length 29 m; draft 5.5 m.

Type: Towing. MMSI: 366998840.

Date/timePositionNaut miles runAvg speedWind from/ knotsBaromVisibWave heightAir tempDewpointWater temp
2017-Oct-29 13:39N 33°43' W 118°14'1 5.3
2017-Oct-29 13:30N 33°43' W 118°15'1 0.8
2017-Oct-29 11:58N 33°44' W 118°16'0 0.0
2017-Oct-29 11:21N 33°44' W 118°16'0 0.0
2017-Oct-29 05:19N 33°44' W 118°16'3 0.2
2017-Oct-28 10:22N 33°46' W 118°13'3 3.8
2017-Oct-28 09:42N 33°43' W 118°14'1 6.6
2017-Oct-28 09:30N 33°44' W 118°12'1 0.9
2017-Oct-28 08:36N 33°45' W 118°13'0 0.0
2017-Oct-28 08:30N 33°45' W 118°13'0 0.0
2017-Oct-28 07:19N 33°45' W 118°13'0 0.0
2017-Oct-28 06:57N 33°45' W 118°13'0 1.0
2017-Oct-28 06:30N 33°45' W 118°13'0 0.0
2017-Oct-28 06:00N 33°45' W 118°13'0 0.2
2017-Oct-28 05:29N 33°45' W 118°13'2 3.8
2017-Oct-28 04:56N 33°44' W 118°12'0 0.5
2017-Oct-28 04:30N 33°44' W 118°12'3 6.8
2017-Oct-28 04:00N 33°44' W 118°16'0 0.2
2017-Oct-28 03:30N 33°44' W 118°16'0 0.0
2017-Oct-28 03:00N 33°44' W 118°16'0 0.0
2017-Oct-28 02:29N 33°44' W 118°16'0 0.0
2017-Oct-28 01:57N 33°44' W 118°16'0 0.0
2017-Oct-28 01:30N 33°44' W 118°16'0 0.0
2017-Oct-28 01:00N 33°44' W 118°16'0 0.0
2017-Oct-28 00:30N 33°44' W 118°16'0 0.0
2017-Oct-28 00:00N 33°44' W 118°16'0 0.0
2017-Oct-27 23:30N 33°44' W 118°16'0 0.0
2017-Oct-27 23:00N 33°44' W 118°16'0 0.0
2017-Oct-27 22:30N 33°44' W 118°16'0 0.0
2017-Oct-27 22:00N 33°44' W 118°16'0 0.0
2017-Oct-27 21:30N 33°44' W 118°16'0 0.0
2017-Oct-27 21:00N 33°44' W 118°16'0 0.0
2017-Oct-27 20:30N 33°44' W 118°16'0 0.0
2017-Oct-27 20:00N 33°44' W 118°16'0 0.0
2017-Oct-27 19:30N 33°44' W 118°16'0 0.0
2017-Oct-27 19:00N 33°44' W 118°16'0 0.0
2017-Oct-27 18:30N 33°44' W 118°16'0 0.0
2017-Oct-27 18:00N 33°44' W 118°16'0 0.0
2017-Oct-27 17:30N 33°44' W 118°16'0 0.0
2017-Oct-27 17:00N 33°44' W 118°16'0 0.0
2017-Oct-27 16:30N 33°44' W 118°16'0 0.0
2017-Oct-27 16:00N 33°44' W 118°16'0 0.0
2017-Oct-27 15:29N 33°44' W 118°16'0 0.0
2017-Oct-27 14:54N 33°44' W 118°16'0 0.0
2017-Oct-27 14:30N 33°44' W 118°16'0 0.0
2017-Oct-27 14:00N 33°44' W 118°16'0 0.0
2017-Oct-27 13:27N 33°44' W 118°16'0 0.8
2017-Oct-27 13:00N 33°44' W 118°15'1 1.2
2017-Oct-27 12:30N 33°44' W 118°16'1 2.3
2017-Oct-27 12:00N 33°43' W 118°15'0 0.2
2017-Oct-27 11:28N 33°43' W 118°15'2 5.1
2017-Oct-27 11:00N 33°45' W 118°16'1 1.8
2017-Oct-27 10:29N 33°44' W 118°16'1 1.0
2017-Oct-27 09:59N 33°44' W 118°16'0 0.0
2017-Oct-27 09:30N 33°44' W 118°16'0 0.0
2017-Oct-27 09:00N 33°44' W 118°16'0 0.0
2017-Oct-27 08:30N 33°44' W 118°16'0 0.0
2017-Oct-27 08:00N 33°44' W 118°16'0 0.0
2017-Oct-27 07:30N 33°44' W 118°16'0 0.0
2017-Oct-27 07:00N 33°44' W 118°16'0 0.0
2017-Oct-27 06:27N 33°44' W 118°16'0 0.0
2017-Oct-27 06:00N 33°44' W 118°16'0 0.0
2017-Oct-27 05:29N 33°44' W 118°16'0 0.0
2017-Oct-27 05:00N 33°44' W 118°16'0 0.0
2017-Oct-27 04:30N 33°44' W 118°16'0 0.0
2017-Oct-27 04:00N 33°44' W 118°16'0 0.0
2017-Oct-27 03:30N 33°44' W 118°16'0 0.0
2017-Oct-27 03:00N 33°44' W 118°16'0 0.0
2017-Oct-27 02:29N 33°44' W 118°16'0 0.0
2017-Oct-27 01:58N 33°44' W 118°16'0 0.0
2017-Oct-27 01:30N 33°44' W 118°16'0 0.0
2017-Oct-27 01:00N 33°44' W 118°16'0 0.0
2017-Oct-27 00:30N 33°44' W 118°16'1 1.5
2017-Oct-27 00:00N 33°44' W 118°17'2 3.1
2017-Oct-26 23:30N 33°46' W 118°17'0 0.6
2017-Oct-26 22:59N 33°45' W 118°16'1 2.9
2017-Oct-26 22:30N 33°44' W 118°16'2 3.7
2017-Oct-26 22:01N 33°43' W 118°15'1 2.8
2017-Oct-26 21:30N 33°44' W 118°16'1 1.5
2017-Oct-26 21:00N 33°43' W 118°16'2 4.0
2017-Oct-26 20:30N 33°45' W 118°16'1 2.0
2017-Oct-26 20:00N 33°46' W 118°15'1 1.2
2017-Oct-26 19:30N 33°45' W 118°16'1 3.0
2017-Oct-26 19:00N 33°44' W 118°16'0 0.0
2017-Oct-26 18:30N 33°44' W 118°16'0 0.0
2017-Oct-26 18:00N 33°44' W 118°16'0 0.0
2017-Oct-26 17:30N 33°44' W 118°16'0 0.0
2017-Oct-26 17:00N 33°44' W 118°16'0 0.0
2017-Oct-26 16:30N 33°44' W 118°16'0 0.0
2017-Oct-26 16:00N 33°44' W 118°16'2 3.1
2017-Oct-26 15:30N 33°43' W 118°14'3 5.2
2017-Oct-26 14:53N 33°45' W 118°11'2 4.8
2017-Oct-26 14:29N 33°44' W 118°13'3 5.5
2017-Oct-26 14:00N 33°44' W 118°16'2 3.1
2017-Oct-26 13:30N 33°45' W 118°16'0 0.3
2017-Oct-26 13:00N 33°46' W 118°16'2 3.2
2017-Oct-26 12:30N 33°44' W 118°17'2 4.1
2017-Oct-26 12:00N 33°42' W 118°15'2 3.0
2017-Oct-26 11:30N 33°44' W 118°16'0 0.0
2017-Oct-26 11:00N 33°44' W 118°16'0 0.0
2017-Oct-26 10:31N 33°44' W 118°16'0 0.0
2017-Oct-26 10:00N 33°44' W 118°16'0 0.0
2017-Oct-26 09:30N 33°44' W 118°16'0 0.0
2017-Oct-26 09:00N 33°44' W 118°16'0 0.0
2017-Oct-26 08:31N 33°44' W 118°16'0 0.0
2017-Oct-26 08:01N 33°44' W 118°16'0 0.0
2017-Oct-26 07:30N 33°44' W 118°16'0 0.0
2017-Oct-26 07:01N 33°44' W 118°16'0 0.0
2017-Oct-26 06:30N 33°44' W 118°16'0 0.0
2017-Oct-26 06:00N 33°44' W 118°16'0 0.0
2017-Oct-26 05:31N 33°44' W 118°16'0 0.0
2017-Oct-26 05:01N 33°44' W 118°16'0 0.0
2017-Oct-26 04:30N 33°44' W 118°16'0 0.0
2017-Oct-26 04:00N 33°44' W 118°16'0 0.0
2017-Oct-26 03:30N 33°44' W 118°16'1 1.6
2017-Oct-26 03:00N 33°44' W 118°17'1 2.4
2017-Oct-26 02:30N 33°45' W 118°16'0 0.8
2017-Oct-26 02:00N 33°45' W 118°16'0 0.2
2017-Oct-26 01:30N 33°45' W 118°16'2 3.1
2017-Oct-26 01:00N 33°44' W 118°16'0 0.1
2017-Oct-26 00:31N 33°44' W 118°16'0 0.0
2017-Oct-26 00:01N 33°44' W 118°16'0 0.0
2017-Oct-25 23:30N 33°44' W 118°16'0 0.0
2017-Oct-25 23:01N 33°44' W 118°16'0 0.0
2017-Oct-25 22:30N 33°44' W 118°16'0 0.0
2017-Oct-25 22:00N 33°44' W 118°16'0 0.0
2017-Oct-25 21:30N 33°44' W 118°16'0 0.0
2017-Oct-25 20:59N 33°44' W 118°16'0 0.0
2017-Oct-25 20:31N 33°44' W 118°16'0 0.0
2017-Oct-25 20:00N 33°44' W 118°16'0 0.0
2017-Oct-25 19:30N 33°44' W 118°16'0 0.0
2017-Oct-25 19:00N 33°44' W 118°16'0 0.0
2017-Oct-25 18:31N 33°44' W 118°16'0 0.0
2017-Oct-25 18:00N 33°44' W 118°16'0 0.0
2017-Oct-25 17:30N 33°44' W 118°16'0 0.0
2017-Oct-25 17:00N 33°44' W 118°16'0 0.0
2017-Oct-25 16:31N 33°44' W 118°16'0 0.0
2017-Oct-25 16:00N 33°44' W 118°16'0 0.0
2017-Oct-25 15:31N 33°44' W 118°16'0 0.0
2017-Oct-25 15:00N 33°44' W 118°16'1 1.8
2017-Oct-25 14:30N 33°43' W 118°15'3 6.9
2017-Oct-25 14:00N 33°44' W 118°12'2 3.8
2017-Oct-25 13:22N 33°43' W 118°14'2 4.3
2017-Oct-25 13:00N 33°44' W 118°16'0 0.0
2017-Oct-25 12:29N 33°44' W 118°16'0 0.0
2017-Oct-25 12:00N 33°44' W 118°16'0 0.0
2017-Oct-25 11:31N 33°44' W 118°16'0 0.0
2017-Oct-25 11:00N 33°44' W 118°16'0 0.0
2017-Oct-25 10:30N 33°44' W 118°16'0 0.0
2017-Oct-25 10:00N 33°44' W 118°16'0 0.0
2017-Oct-25 09:30N 33°44' W 118°16'0 0.0
2017-Oct-25 09:00N 33°44' W 118°16'0 0.0
2017-Oct-25 08:30N 33°44' W 118°16'0 0.0
2017-Oct-25 07:59N 33°44' W 118°16'0 0.0
2017-Oct-25 07:31N 33°44' W 118°16'0 0.0
2017-Oct-25 07:00N 33°44' W 118°16'0 0.0
2017-Oct-25 06:30N 33°44' W 118°16'0 0.0
2017-Oct-25 06:00N 33°44' W 118°16'0 0.0
2017-Oct-25 05:30N 33°44' W 118°16'0 0.0
2017-Oct-25 05:00N 33°44' W 118°16'0 0.0
2017-Oct-25 04:31N 33°44' W 118°16'0 0.0
2017-Oct-25 04:00N 33°44' W 118°16'0 0.0
2017-Oct-25 03:30N 33°44' W 118°16'0 0.0
2017-Oct-25 03:00N 33°44' W 118°16'0 0.0
2017-Oct-25 02:30N 33°44' W 118°16'0 0.0
2017-Oct-25 02:00N 33°44' W 118°16'0 0.0
2017-Oct-25 01:30N 33°44' W 118°16'0 0.0
2017-Oct-25 01:00N 33°44' W 118°16'0 0.0
2017-Oct-25 00:30N 33°44' W 118°16'0 0.0
2017-Oct-25 00:00N 33°44' W 118°16'0 0.0
2017-Oct-24 23:30N 33°44' W 118°16'0 0.0
2017-Oct-24 23:00N 33°44' W 118°16'0 0.0
2017-Oct-24 22:30N 33°44' W 118°16'0 0.0
2017-Oct-24 22:00N 33°44' W 118°16'0 0.0
2017-Oct-24 21:29N 33°44' W 118°16'0 0.0
2017-Oct-24 21:01N 33°44' W 118°16'0 0.0
2017-Oct-24 20:30N 33°44' W 118°16'0 0.0
2017-Oct-24 20:00N 33°44' W 118°16'0 0.0
2017-Oct-24 19:30N 33°44' W 118°16'0 0.0
2017-Oct-24 19:00N 33°44' W 118°16'0 0.0
2017-Oct-24 18:30N 33°44' W 118°16'0 0.0
2017-Oct-24 18:00N 33°44' W 118°16'0 0.0
2017-Oct-24 17:30N 33°44' W 118°16'0 0.0
2017-Oct-24 17:00N 33°44' W 118°16'0 0.0
2017-Oct-24 16:30N 33°44' W 118°16'0 0.0
2017-Oct-24 16:01N 33°44' W 118°16'0 0.0
2017-Oct-24 15:30N 33°44' W 118°16'0 0.0
2017-Oct-24 15:01N 33°44' W 118°16'0 0.0
2017-Oct-24 14:30N 33°44' W 118°16'0 0.0
2017-Oct-24 13:59N 33°44' W 118°16'0 0.0
2017-Oct-24 13:21N 33°44' W 118°16'0 1.2
2017-Oct-24 12:58N 33°44' W 118°15'1 1.8
2017-Oct-24 12:27N 33°43' W 118°16'1 1.0
2017-Oct-24 11:52N 33°43' W 118°15'1 1.3
2017-Oct-24 10:59N 33°44' W 118°16'0 0.0
2017-Oct-24 10:20N 33°44' W 118°16'0 0.0
2017-Oct-24 09:56N 33°44' W 118°16'0 0.0
2017-Oct-24 09:20N 33°44' W 118°16'0 0.0
2017-Oct-24 08:50N 33°44' W 118°16'0 0.0
2017-Oct-24 08:25N 33°44' W 118°16'0 0.0
2017-Oct-24 07:50N 33°44' W 118°16'0 0.0
2017-Oct-24 07:29N 33°44' W 118°16'0 0.0
2017-Oct-24 07:00N 33°44' W 118°16'0 0.0
2017-Oct-24 06:14N 33°44' W 118°16'0 0.0
2017-Oct-24 05:56N 33°44' W 118°16'0 0.0
2017-Oct-24 05:30N 33°44' W 118°16'0 0.0
2017-Oct-24 04:57N 33°44' W 118°16'0 0.0
2017-Oct-24 04:29N 33°44' W 118°16'0 0.0
2017-Oct-24 03:55N 33°44' W 118°16'0 0.0
2017-Oct-24 03:28N 33°44' W 118°16'0 0.0
2017-Oct-24 02:57N 33°44' W 118°16'0 0.0
2017-Oct-24 02:30N 33°44' W 118°16'0 0.0
2017-Oct-24 01:59N 33°44' W 118°16'0 0.0
2017-Oct-24 01:28N 33°44' W 118°16'0 0.0
2017-Oct-24 01:00N 33°44' W 118°16'0 0.0
2017-Oct-24 00:30N 33°44' W 118°16'0 0.0
2017-Oct-24 00:00N 33°44' W 118°16'0 0.0
2017-Oct-23 23:30N 33°44' W 118°16'0 0.0
2017-Oct-23 23:01N 33°44' W 118°16'0 0.4
2017-Oct-23 22:30N 33°44' W 118°15'0 0.0
2017-Oct-23 22:00N 33°44' W 118°15'1 1.6
2017-Oct-23 21:30N 33°43' W 118°16'1 1.9
2017-Oct-23 21:00N 33°43' W 118°15'1 2.7
2017-Oct-23 20:30N 33°44' W 118°16'0 0.2
2017-Oct-23 20:00N 33°44' W 118°16'0 0.0
2017-Oct-23 19:31N 33°44' W 118°16'0 0.0
2017-Oct-23 19:01N 33°44' W 118°16'0 0.0
2017-Oct-23 18:30N 33°44' W 118°16'0 0.0
2017-Oct-23 18:00N 33°44' W 118°16'0 0.0
2017-Oct-23 17:30N 33°44' W 118°16'0 0.0
2017-Oct-23 17:01N 33°44' W 118°16'0 0.0
2017-Oct-23 16:31N 33°44' W 118°16'0 0.0
2017-Oct-23 16:00N 33°44' W 118°16'0 0.0
2017-Oct-23 15:11N 33°44' W 118°16'0 0.0
2017-Oct-23 14:58N 33°44' W 118°16'0 0.0
2017-Oct-23 14:26N 33°44' W 118°16'0 0.0
2017-Oct-23 12:19N 33°44' W 118°16'0 0.0
2017-Oct-23 11:16N 33°44' W 118°16'0 0.0
2017-Oct-23 10:59N 33°44' W 118°16'0 0.0
2017-Oct-23 09:31N 33°44' W 118°16'0 0.0
2017-Oct-23 09:25N 33°44' W 118°16'0 0.0
2017-Oct-23 08:58N 33°44' W 118°16'0 0.0
2017-Oct-23 07:59N 33°44' W 118°16'0 0.0
2017-Oct-23 06:43N 33°44' W 118°16'0 0.0
2017-Oct-23 06:23N 33°44' W 118°16'0 0.0
2017-Oct-23 05:56N 33°44' W 118°16'0 0.0
2017-Oct-23 05:24N 33°44' W 118°16'0 0.0
2017-Oct-23 04:49N 33°44' W 118°16'0 0.0
2017-Oct-23 04:21N 33°44' W 118°16'0 0.0
2017-Oct-23 03:54N 33°44' W 118°16'0 0.0
2017-Oct-23 03:27N 33°44' W 118°16'0 0.0
2017-Oct-23 02:42N 33°44' W 118°16'0 0.0
2017-Oct-23 02:27N 33°44' W 118°16'1 2.4
2017-Oct-23 01:53N 33°45' W 118°16'1 2.0
2017-Oct-23 01:29N 33°46' W 118°15'0 0.2
2017-Oct-23 01:00N 33°46' W 118°15'2 3.2
2017-Oct-23 00:30N 33°45' W 118°17'2 3.2
2017-Oct-23 00:00N 33°43' W 118°16'1 2.3
2017-Oct-22 23:30N 33°43' W 118°15'1 2.5
2017-Oct-22 22:58N 33°44' W 118°16'0 0.0
2017-Oct-22 22:30N 33°44' W 118°16'0 0.0
2017-Oct-22 21:59N 33°44' W 118°16'0 0.0
2017-Oct-22 21:21N 33°44' W 118°16'0 0.0
2017-Oct-22 20:54N 33°44' W 118°16'0 0.0
2017-Oct-22 20:29N 33°44' W 118°16'0 0.0
2017-Oct-22 19:57N 33°44' W 118°16'0 0.0
2017-Oct-22 19:25N 33°44' W 118°16'0 0.0
2017-Oct-22 19:00N 33°44' W 118°16'0 0.0
2017-Oct-22 18:30N 33°44' W 118°16'0 0.0
2017-Oct-22 17:56N 33°44' W 118°16'0 0.0
2017-Oct-22 17:29N 33°44' W 118°16'0 0.0
2017-Oct-22 17:00N 33°44' W 118°16'0 0.0
2017-Oct-22 16:22N 33°44' W 118°16'0 0.0
2017-Oct-22 15:57N 33°44' W 118°16'3 1.4
2017-Oct-22 14:01N 33°45' W 118°13'0 0.2
2017-Oct-22 13:59N 33°45' W 118°13'3 1.8
2017-Oct-22 12:30N 33°45' W 118°16'0 0.5
2017-Oct-22 11:50N 33°45' W 118°17'2 1.5
2017-Oct-22 10:50N 33°44' W 118°16'0 0.0
2017-Oct-22 08:51N 33°44' W 118°16'0 0.0
2017-Oct-22 08:28N 33°44' W 118°16'0 0.0
2017-Oct-22 06:38N 33°44' W 118°16'0 0.0
2017-Oct-22 06:09N 33°44' W 118°16'0 0.0
2017-Oct-22 05:53N 33°44' W 118°16'0 0.0
2017-Oct-22 05:28N 33°44' W 118°16'0 0.0
2017-Oct-22 04:58N 33°44' W 118°16'0 0.0
2017-Oct-22 04:29N 33°44' W 118°16'0 0.0
2017-Oct-22 03:56N 33°44' W 118°16'0 0.0
2017-Oct-22 03:26N 33°44' W 118°16'0 0.0
2017-Oct-22 03:00N 33°44' W 118°16'0 0.0
2017-Oct-22 02:30N 33°44' W 118°16'1 1.1
2017-Oct-22 01:59N 33°44' W 118°16'2 1.1
2017-Oct-21 23:58N 33°46' W 118°16'0 0.0
2017-Oct-21 23:28N 33°46' W 118°16'1 2.0
2017-Oct-21 23:00N 33°45' W 118°16'1 2.0
2017-Oct-21 22:26N 33°44' W 118°16'2 4.2
2017-Oct-21 21:59N 33°43' W 118°15'1 3.0
2017-Oct-21 21:30N 33°44' W 118°16'0 0.0
2017-Oct-21 21:00N 33°44' W 118°16'0 0.0
2017-Oct-21 20:25N 33°44' W 118°16'0 0.0
2017-Oct-21 19:58N 33°44' W 118°16'0 0.0
2017-Oct-21 19:29N 33°44' W 118°16'0 0.0
2017-Oct-21 18:59N 33°44' W 118°16'0 0.0
2017-Oct-21 18:27N 33°44' W 118°16'0 0.0
2017-Oct-21 17:59N 33°44' W 118°16'0 0.0
2017-Oct-21 17:28N 33°44' W 118°16'0 0.0
2017-Oct-21 16:53N 33°44' W 118°16'0 0.0
2017-Oct-21 16:29N 33°44' W 118°16'0 0.0
2017-Oct-21 15:50N 33°44' W 118°16'0 0.0
2017-Oct-21 09:39N 33°44' W 118°16'0 0.0
2017-Oct-21 09:25N 33°44' W 118°16'0 0.0
2017-Oct-21 08:56N 33°44' W 118°16'0 0.0
2017-Oct-21 08:23N 33°44' W 118°16'0 0.0
2017-Oct-21 06:50N 33°44' W 118°16'0 0.0
2017-Oct-21 06:06N 33°44' W 118°16'0 0.0
2017-Oct-21 05:42N 33°44' W 118°16'0 0.0
2017-Oct-21 04:00N 33°44' W 118°16'0 0.0
2017-Oct-21 01:36N 33°44' W 118°16'0 0.0
2017-Oct-21 01:15N 33°44' W 118°16'0 0.0
2017-Oct-21 00:58N 33°44' W 118°16'0 0.0
2017-Oct-21 00:20N 33°44' W 118°16'0 0.0
2017-Oct-20 23:49N 33°44' W 118°16'0 0.0
2017-Oct-20 23:11N 33°44' W 118°16'0 0.0
2017-Oct-20 22:59N 33°44' W 118°16'0 0.0
2017-Oct-20 22:30N 33°44' W 118°16'0 0.0
2017-Oct-20 21:59N 33°44' W 118°16'0 0.0
2017-Oct-20 21:28N 33°44' W 118°16'0 0.0
2017-Oct-20 20:44N 33°44' W 118°16'0 0.0
2017-Oct-20 20:18N 33°44' W 118°16'0 0.0
2017-Oct-20 20:00N 33°44' W 118°16'0 0.0
2017-Oct-20 19:30N 33°44' W 118°16'0 0.0
2017-Oct-20 18:59N 33°44' W 118°16'0 0.0
2017-Oct-20 18:30N 33°44' W 118°16'0 0.0
2017-Oct-20 18:00N 33°44' W 118°16'0 0.0
2017-Oct-20 17:27N 33°44' W 118°16'0 0.0
2017-Oct-20 16:58N 33°44' W 118°16'0 0.0
2017-Oct-20 16:27N 33°44' W 118°16'0 0.0
2017-Oct-20 16:00N 33°44' W 118°16'0 0.0
2017-Oct-20 15:26N 33°44' W 118°16'0 0.0
2017-Oct-20 15:00N 33°44' W 118°16'0 0.0
2017-Oct-20 14:13N 33°44' W 118°16'0 0.0
2017-Oct-20 13:23N 33°44' W 118°16'0 0.0
2017-Oct-20 12:57N 33°44' W 118°16'0 0.0
2017-Oct-20 10:00N 33°44' W 118°16'0 0.0
2017-Oct-20 06:32N 33°44' W 118°16'0 0.0
2017-Oct-20 05:32N 33°44' W 118°16'0 0.0
2017-Oct-20 05:30N 33°44' W 118°16'0 0.0
2017-Oct-20 04:51N 33°44' W 118°16'0 0.0
2017-Oct-20 02:43N 33°44' W 118°16'0 0.0
2017-Oct-20 02:25N 33°44' W 118°16'0 0.0
2017-Oct-20 01:40N 33°44' W 118°16'0 0.0
2017-Oct-20 01:09N 33°44' W 118°16'0 0.0
2017-Oct-20 00:59N 33°44' W 118°16'0 0.0
2017-Oct-20 00:30N 33°44' W 118°16'0 0.0
2017-Oct-20 00:00N 33°44' W 118°16'0 0.0
2017-Oct-19 23:24N 33°44' W 118°16'0 0.0
2017-Oct-19 22:56N 33°44' W 118°16'0 0.0
2017-Oct-19 22:30N 33°44' W 118°16'0 0.0
2017-Oct-19 21:59N 33°44' W 118°16'0 0.0
2017-Oct-19 21:27N 33°44' W 118°16'0 0.0
2017-Oct-19 20:58N 33°44' W 118°16'0 0.0
2017-Oct-19 20:30N 33°44' W 118°16'0 0.0
2017-Oct-19 19:58N 33°44' W 118°16'0 0.0
2017-Oct-19 19:25N 33°44' W 118°16'0 0.0
2017-Oct-19 18:52N 33°44' W 118°16'0 0.0
2017-Oct-19 18:23N 33°44' W 118°16'0 0.0
2017-Oct-19 17:59N 33°44' W 118°16'0 0.0
2017-Oct-19 17:25N 33°44' W 118°16'0 0.0
2017-Oct-19 16:46N 33°44' W 118°16'0 0.0
2017-Oct-19 15:52N 33°44' W 118°16'0 0.0
2017-Oct-19 15:30N 33°44' W 118°16'  
Track history (hours):
 
Tides and Currents Weather Stations Pressure Air Temp Water Temp Dewpoint Dewpoint Depression Visibility Wind Speed Wind Dir Waves Ship Positions

Millenium Maverick

Last reported at 2017-Oct-29 13:39 UTC. Time now 2017-Nov-23 01:47 UTC.
Position N 33°43' W 118°14'.
Warning: this ship's position is 24 days out of date.

Length 29 m; draft 5.5 m.

Type: Towing. MMSI: 366998840.

Date/timePositionNaut miles runAvg speedWind from/ knotsBaromVisibWave heightAir tempDewpointWater temp
2017-Oct-29 13:39N 33°43' W 118°14'1 5.3
2017-Oct-29 13:30N 33°43' W 118°15'1 0.8
2017-Oct-29 11:58N 33°44' W 118°16'0 0.0
2017-Oct-29 11:21N 33°44' W 118°16'0 0.0
2017-Oct-29 05:19N 33°44' W 118°16'3 0.2
2017-Oct-28 10:22N 33°46' W 118°13'3 3.8
2017-Oct-28 09:42N 33°43' W 118°14'1 6.6
2017-Oct-28 09:30N 33°44' W 118°12'1 0.9
2017-Oct-28 08:36N 33°45' W 118°13'0 0.0
2017-Oct-28 08:30N 33°45' W 118°13'0 0.0
2017-Oct-28 07:19N 33°45' W 118°13'0 0.0
2017-Oct-28 06:57N 33°45' W 118°13'0 1.0
2017-Oct-28 06:30N 33°45' W 118°13'0 0.0
2017-Oct-28 06:00N 33°45' W 118°13'0 0.2
2017-Oct-28 05:29N 33°45' W 118°13'2 3.8
2017-Oct-28 04:56N 33°44' W 118°12'0 0.5
2017-Oct-28 04:30N 33°44' W 118°12'3 6.8
2017-Oct-28 04:00N 33°44' W 118°16'0 0.2
2017-Oct-28 03:30N 33°44' W 118°16'0 0.0
2017-Oct-28 03:00N 33°44' W 118°16'0 0.0
2017-Oct-28 02:29N 33°44' W 118°16'0 0.0
2017-Oct-28 01:57N 33°44' W 118°16'0 0.0
2017-Oct-28 01:30N 33°44' W 118°16'0 0.0
2017-Oct-28 01:00N 33°44' W 118°16'0 0.0
2017-Oct-28 00:30N 33°44' W 118°16'0 0.0
2017-Oct-28 00:00N 33°44' W 118°16'0 0.0
2017-Oct-27 23:30N 33°44' W 118°16'0 0.0
2017-Oct-27 23:00N 33°44' W 118°16'0 0.0
2017-Oct-27 22:30N 33°44' W 118°16'0 0.0
2017-Oct-27 22:00N 33°44' W 118°16'0 0.0
2017-Oct-27 21:30N 33°44' W 118°16'0 0.0
2017-Oct-27 21:00N 33°44' W 118°16'0 0.0
2017-Oct-27 20:30N 33°44' W 118°16'0 0.0
2017-Oct-27 20:00N 33°44' W 118°16'0 0.0
2017-Oct-27 19:30N 33°44' W 118°16'0 0.0
2017-Oct-27 19:00N 33°44' W 118°16'0 0.0
2017-Oct-27 18:30N 33°44' W 118°16'0 0.0
2017-Oct-27 18:00N 33°44' W 118°16'0 0.0
2017-Oct-27 17:30N 33°44' W 118°16'0 0.0
2017-Oct-27 17:00N 33°44' W 118°16'0 0.0
2017-Oct-27 16:30N 33°44' W 118°16'0 0.0
2017-Oct-27 16:00N 33°44' W 118°16'0 0.0
2017-Oct-27 15:29N 33°44' W 118°16'0 0.0
2017-Oct-27 14:54N 33°44' W 118°16'0 0.0
2017-Oct-27 14:30N 33°44' W 118°16'0 0.0
2017-Oct-27 14:00N 33°44' W 118°16'0 0.0
2017-Oct-27 13:27N 33°44' W 118°16'0 0.8
2017-Oct-27 13:00N 33°44' W 118°15'1 1.2
2017-Oct-27 12:30N 33°44' W 118°16'1 2.3
2017-Oct-27 12:00N 33°43' W 118°15'0 0.2
2017-Oct-27 11:28N 33°43' W 118°15'2 5.1
2017-Oct-27 11:00N 33°45' W 118°16'1 1.8
2017-Oct-27 10:29N 33°44' W 118°16'1 1.0
2017-Oct-27 09:59N 33°44' W 118°16'0 0.0
2017-Oct-27 09:30N 33°44' W 118°16'0 0.0
2017-Oct-27 09:00N 33°44' W 118°16'0 0.0
2017-Oct-27 08:30N 33°44' W 118°16'0 0.0
2017-Oct-27 08:00N 33°44' W 118°16'0 0.0
2017-Oct-27 07:30N 33°44' W 118°16'0 0.0
2017-Oct-27 07:00N 33°44' W 118°16'0 0.0
2017-Oct-27 06:27N 33°44' W 118°16'0 0.0
2017-Oct-27 06:00N 33°44' W 118°16'0 0.0
2017-Oct-27 05:29N 33°44' W 118°16'0 0.0
2017-Oct-27 05:00N 33°44' W 118°16'0 0.0
2017-Oct-27 04:30N 33°44' W 118°16'0 0.0
2017-Oct-27 04:00N 33°44' W 118°16'0 0.0
2017-Oct-27 03:30N 33°44' W 118°16'0 0.0
2017-Oct-27 03:00N 33°44' W 118°16'0 0.0
2017-Oct-27 02:29N 33°44' W 118°16'0 0.0
2017-Oct-27 01:58N 33°44' W 118°16'0 0.0
2017-Oct-27 01:30N 33°44' W 118°16'0 0.0
2017-Oct-27 01:00N 33°44' W 118°16'0 0.0
2017-Oct-27 00:30N 33°44' W 118°16'1 1.5
2017-Oct-27 00:00N 33°44' W 118°17'2 3.1
2017-Oct-26 23:30N 33°46' W 118°17'0 0.6
2017-Oct-26 22:59N 33°45' W 118°16'1 2.9
2017-Oct-26 22:30N 33°44' W 118°16'2 3.7
2017-Oct-26 22:01N 33°43' W 118°15'1 2.8
2017-Oct-26 21:30N 33°44' W 118°16'1 1.5
2017-Oct-26 21:00N 33°43' W 118°16'2 4.0
2017-Oct-26 20:30N 33°45' W 118°16'1 2.0
2017-Oct-26 20:00N 33°46' W 118°15'1 1.2
2017-Oct-26 19:30N 33°45' W 118°16'1 3.0
2017-Oct-26 19:00N 33°44' W 118°16'0 0.0
2017-Oct-26 18:30N 33°44' W 118°16'0 0.0
2017-Oct-26 18:00N 33°44' W 118°16'0 0.0
2017-Oct-26 17:30N 33°44' W 118°16'0 0.0
2017-Oct-26 17:00N 33°44' W 118°16'0 0.0
2017-Oct-26 16:30N 33°44' W 118°16'0 0.0
2017-Oct-26 16:00N 33°44' W 118°16'2 3.1
2017-Oct-26 15:30N 33°43' W 118°14'3 5.2
2017-Oct-26 14:53N 33°45' W 118°11'2 4.8
2017-Oct-26 14:29N 33°44' W 118°13'3 5.5
2017-Oct-26 14:00N 33°44' W 118°16'2 3.1
2017-Oct-26 13:30N 33°45' W 118°16'0 0.3
2017-Oct-26 13:00N 33°46' W 118°16'2 3.2
2017-Oct-26 12:30N 33°44' W 118°17'2 4.1
2017-Oct-26 12:00N 33°42' W 118°15'2 3.0
2017-Oct-26 11:30N 33°44' W 118°16'0 0.0
2017-Oct-26 11:00N 33°44' W 118°16'0 0.0
2017-Oct-26 10:31N 33°44' W 118°16'0 0.0
2017-Oct-26 10:00N 33°44' W 118°16'0 0.0
2017-Oct-26 09:30N 33°44' W 118°16'0 0.0
2017-Oct-26 09:00N 33°44' W 118°16'0 0.0
2017-Oct-26 08:31N 33°44' W 118°16'0 0.0
2017-Oct-26 08:01N 33°44' W 118°16'0 0.0
2017-Oct-26 07:30N 33°44' W 118°16'0 0.0
2017-Oct-26 07:01N 33°44' W 118°16'0 0.0
2017-Oct-26 06:30N 33°44' W 118°16'0 0.0
2017-Oct-26 06:00N 33°44' W 118°16'0 0.0
2017-Oct-26 05:31N 33°44' W 118°16'0 0.0
2017-Oct-26 05:01N 33°44' W 118°16'0 0.0
2017-Oct-26 04:30N 33°44' W 118°16'0 0.0
2017-Oct-26 04:00N 33°44' W 118°16'0 0.0
2017-Oct-26 03:30N 33°44' W 118°16'1 1.6
2017-Oct-26 03:00N 33°44' W 118°17'1 2.4
2017-Oct-26 02:30N 33°45' W 118°16'0 0.8
2017-Oct-26 02:00N 33°45' W 118°16'0 0.2
2017-Oct-26 01:30N 33°45' W 118°16'2 3.1
2017-Oct-26 01:00N 33°44' W 118°16'0 0.1
2017-Oct-26 00:31N 33°44' W 118°16'0 0.0
2017-Oct-26 00:01N 33°44' W 118°16'0 0.0
2017-Oct-25 23:30N 33°44' W 118°16'0 0.0
2017-Oct-25 23:01N 33°44' W 118°16'0 0.0
2017-Oct-25 22:30N 33°44' W 118°16'0 0.0
2017-Oct-25 22:00N 33°44' W 118°16'0 0.0
2017-Oct-25 21:30N 33°44' W 118°16'0 0.0
2017-Oct-25 20:59N 33°44' W 118°16'0 0.0
2017-Oct-25 20:31N 33°44' W 118°16'0 0.0
2017-Oct-25 20:00N 33°44' W 118°16'0 0.0
2017-Oct-25 19:30N 33°44' W 118°16'0 0.0
2017-Oct-25 19:00N 33°44' W 118°16'0 0.0
2017-Oct-25 18:31N 33°44' W 118°16'0 0.0
2017-Oct-25 18:00N 33°44' W 118°16'0 0.0
2017-Oct-25 17:30N 33°44' W 118°16'0 0.0
2017-Oct-25 17:00N 33°44' W 118°16'0 0.0
2017-Oct-25 16:31N 33°44' W 118°16'0 0.0
2017-Oct-25 16:00N 33°44' W 118°16'0 0.0
2017-Oct-25 15:31N 33°44' W 118°16'0 0.0
2017-Oct-25 15:00N 33°44' W 118°16'1 1.8
2017-Oct-25 14:30N 33°43' W 118°15'3 6.9
2017-Oct-25 14:00N 33°44' W 118°12'2 3.8
2017-Oct-25 13:22N 33°43' W 118°14'2 4.3
2017-Oct-25 13:00N 33°44' W 118°16'0 0.0
2017-Oct-25 12:29N 33°44' W 118°16'0 0.0
2017-Oct-25 12:00N 33°44' W 118°16'0 0.0
2017-Oct-25 11:31N 33°44' W 118°16'0 0.0
2017-Oct-25 11:00N 33°44' W 118°16'0 0.0
2017-Oct-25 10:30N 33°44' W 118°16'0 0.0
2017-Oct-25 10:00N 33°44' W 118°16'0 0.0
2017-Oct-25 09:30N 33°44' W 118°16'0 0.0
2017-Oct-25 09:00N 33°44' W 118°16'0 0.0
2017-Oct-25 08:30N 33°44' W 118°16'0 0.0
2017-Oct-25 07:59N 33°44' W 118°16'0 0.0
2017-Oct-25 07:31N 33°44' W 118°16'0 0.0
2017-Oct-25 07:00N 33°44' W 118°16'0 0.0
2017-Oct-25 06:30N 33°44' W 118°16'0 0.0
2017-Oct-25 06:00N 33°44' W 118°16'0 0.0
2017-Oct-25 05:30N 33°44' W 118°16'0 0.0
2017-Oct-25 05:00N 33°44' W 118°16'0 0.0
2017-Oct-25 04:31N 33°44' W 118°16'0 0.0
2017-Oct-25 04:00N 33°44' W 118°16'0 0.0
2017-Oct-25 03:30N 33°44' W 118°16'0 0.0
2017-Oct-25 03:00N 33°44' W 118°16'0 0.0
2017-Oct-25 02:30N 33°44' W 118°16'0 0.0
2017-Oct-25 02:00N 33°44' W 118°16'0 0.0
2017-Oct-25 01:30N 33°44' W 118°16'0 0.0
2017-Oct-25 01:00N 33°44' W 118°16'0 0.0
2017-Oct-25 00:30N 33°44' W 118°16'0 0.0
2017-Oct-25 00:00N 33°44' W 118°16'0 0.0
2017-Oct-24 23:30N 33°44' W 118°16'0 0.0
2017-Oct-24 23:00N 33°44' W 118°16'0 0.0
2017-Oct-24 22:30N 33°44' W 118°16'0 0.0
2017-Oct-24 22:00N 33°44' W 118°16'0 0.0
2017-Oct-24 21:29N 33°44' W 118°16'0 0.0
2017-Oct-24 21:01N 33°44' W 118°16'0 0.0
2017-Oct-24 20:30N 33°44' W 118°16'0 0.0
2017-Oct-24 20:00N 33°44' W 118°16'0 0.0
2017-Oct-24 19:30N 33°44' W 118°16'0 0.0
2017-Oct-24 19:00N 33°44' W 118°16'0 0.0
2017-Oct-24 18:30N 33°44' W 118°16'0 0.0
2017-Oct-24 18:00N 33°44' W 118°16'0 0.0
2017-Oct-24 17:30N 33°44' W 118°16'0 0.0
2017-Oct-24 17:00N 33°44' W 118°16'0 0.0
2017-Oct-24 16:30N 33°44' W 118°16'0 0.0
2017-Oct-24 16:01N 33°44' W 118°16'0 0.0
2017-Oct-24 15:30N 33°44' W 118°16'0 0.0
2017-Oct-24 15:01N 33°44' W 118°16'0 0.0
2017-Oct-24 14:30N 33°44' W 118°16'0 0.0
2017-Oct-24 13:59N 33°44' W 118°16'0 0.0
2017-Oct-24 13:21N 33°44' W 118°16'0 1.2
2017-Oct-24 12:58N 33°44' W 118°15'1 1.8
2017-Oct-24 12:27N 33°43' W 118°16'1 1.0
2017-Oct-24 11:52N 33°43' W 118°15'1 1.3
2017-Oct-24 10:59N 33°44' W 118°16'0 0.0
2017-Oct-24 10:20N 33°44' W 118°16'0 0.0
2017-Oct-24 09:56N 33°44' W 118°16'0 0.0
2017-Oct-24 09:20N 33°44' W 118°16'0 0.0
2017-Oct-24 08:50N 33°44' W 118°16'0 0.0
2017-Oct-24 08:25N 33°44' W 118°16'0 0.0
2017-Oct-24 07:50N 33°44' W 118°16'0 0.0
2017-Oct-24 07:29N 33°44' W 118°16'0 0.0
2017-Oct-24 07:00N 33°44' W 118°16'0 0.0
2017-Oct-24 06:14N 33°44' W 118°16'0 0.0
2017-Oct-24 05:56N 33°44' W 118°16'0 0.0
2017-Oct-24 05:30N 33°44' W 118°16'0 0.0
2017-Oct-24 04:57N 33°44' W 118°16'0 0.0
2017-Oct-24 04:29N 33°44' W 118°16'0 0.0
2017-Oct-24 03:55N 33°44' W 118°16'0 0.0
2017-Oct-24 03:28N 33°44' W 118°16'0 0.0
2017-Oct-24 02:57N 33°44' W 118°16'0 0.0
2017-Oct-24 02:30N 33°44' W 118°16'0 0.0
2017-Oct-24 01:59N 33°44' W 118°16'0 0.0
2017-Oct-24 01:28N 33°44' W 118°16'0 0.0
2017-Oct-24 01:00N 33°44' W 118°16'0 0.0
2017-Oct-24 00:30N 33°44' W 118°16'0 0.0
2017-Oct-24 00:00N 33°44' W 118°16'0 0.0
2017-Oct-23 23:30N 33°44' W 118°16'0 0.0
2017-Oct-23 23:01N 33°44' W 118°16'0 0.4
2017-Oct-23 22:30N 33°44' W 118°15'0 0.0
2017-Oct-23 22:00N 33°44' W 118°15'1 1.6
2017-Oct-23 21:30N 33°43' W 118°16'1 1.9
2017-Oct-23 21:00N 33°43' W 118°15'1 2.7
2017-Oct-23 20:30N 33°44' W 118°16'0 0.2
2017-Oct-23 20:00N 33°44' W 118°16'0 0.0
2017-Oct-23 19:31N 33°44' W 118°16'0 0.0
2017-Oct-23 19:01N 33°44' W 118°16'0 0.0
2017-Oct-23 18:30N 33°44' W 118°16'0 0.0
2017-Oct-23 18:00N 33°44' W 118°16'0 0.0
2017-Oct-23 17:30N 33°44' W 118°16'0 0.0
2017-Oct-23 17:01N 33°44' W 118°16'0 0.0
2017-Oct-23 16:31N 33°44' W 118°16'0 0.0
2017-Oct-23 16:00N 33°44' W 118°16'0 0.0
2017-Oct-23 15:11N 33°44' W 118°16'0 0.0
2017-Oct-23 14:58N 33°44' W 118°16'0 0.0
2017-Oct-23 14:26N 33°44' W 118°16'0 0.0
2017-Oct-23 12:19N 33°44' W 118°16'0 0.0
2017-Oct-23 11:16N 33°44' W 118°16'0 0.0
2017-Oct-23 10:59N 33°44' W 118°16'0 0.0
2017-Oct-23 09:31N 33°44' W 118°16'0 0.0
2017-Oct-23 09:25N 33°44' W 118°16'0 0.0
2017-Oct-23 08:58N 33°44' W 118°16'0 0.0
2017-Oct-23 07:59N 33°44' W 118°16'0 0.0
2017-Oct-23 06:43N 33°44' W 118°16'0 0.0
2017-Oct-23 06:23N 33°44' W 118°16'0 0.0
2017-Oct-23 05:56N 33°44' W 118°16'0 0.0
2017-Oct-23 05:24N 33°44' W 118°16'0 0.0
2017-Oct-23 04:49N 33°44' W 118°16'0 0.0
2017-Oct-23 04:21N 33°44' W 118°16'0 0.0
2017-Oct-23 03:54N 33°44' W 118°16'0 0.0
2017-Oct-23 03:27N 33°44' W 118°16'0 0.0
2017-Oct-23 02:42N 33°44' W 118°16'0 0.0
2017-Oct-23 02:27N 33°44' W 118°16'1 2.4
2017-Oct-23 01:53N 33°45' W 118°16'1 2.0
2017-Oct-23 01:29N 33°46' W 118°15'0 0.2
2017-Oct-23 01:00N 33°46' W 118°15'2 3.2
2017-Oct-23 00:30N 33°45' W 118°17'2 3.2
2017-Oct-23 00:00N 33°43' W 118°16'1 2.3
2017-Oct-22 23:30N 33°43' W 118°15'1 2.5
2017-Oct-22 22:58N 33°44' W 118°16'0 0.0
2017-Oct-22 22:30N 33°44' W 118°16'0 0.0
2017-Oct-22 21:59N 33°44' W 118°16'0 0.0
2017-Oct-22 21:21N 33°44' W 118°16'0 0.0
2017-Oct-22 20:54N 33°44' W 118°16'0 0.0
2017-Oct-22 20:29N 33°44' W 118°16'0 0.0
2017-Oct-22 19:57N 33°44' W 118°16'0 0.0
2017-Oct-22 19:25N 33°44' W 118°16'0 0.0
2017-Oct-22 19:00N 33°44' W 118°16'0 0.0
2017-Oct-22 18:30N 33°44' W 118°16'0 0.0
2017-Oct-22 17:56N 33°44' W 118°16'0 0.0
2017-Oct-22 17:29N 33°44' W 118°16'0 0.0
2017-Oct-22 17:00N 33°44' W 118°16'0 0.0
2017-Oct-22 16:22N 33°44' W 118°16'0 0.0
2017-Oct-22 15:57N 33°44' W 118°16'3 1.4
2017-Oct-22 14:01N 33°45' W 118°13'0 0.2
2017-Oct-22 13:59N 33°45' W 118°13'3 1.8
2017-Oct-22 12:30N 33°45' W 118°16'0 0.5
2017-Oct-22 11:50N 33°45' W 118°17'2 1.5
2017-Oct-22 10:50N 33°44' W 118°16'0 0.0
2017-Oct-22 08:51N 33°44' W 118°16'0 0.0
2017-Oct-22 08:28N 33°44' W 118°16'0 0.0
2017-Oct-22 06:38N 33°44' W 118°16'0 0.0
2017-Oct-22 06:09N 33°44' W 118°16'0 0.0
2017-Oct-22 05:53N 33°44' W 118°16'0 0.0
2017-Oct-22 05:28N 33°44' W 118°16'0 0.0
2017-Oct-22 04:58N 33°44' W 118°16'0 0.0
2017-Oct-22 04:29N 33°44' W 118°16'0 0.0
2017-Oct-22 03:56N 33°44' W 118°16'0 0.0
2017-Oct-22 03:26N 33°44' W 118°16'0 0.0
2017-Oct-22 03:00N 33°44' W 118°16'0 0.0
2017-Oct-22 02:30N 33°44' W 118°16'1 1.1
2017-Oct-22 01:59N 33°44' W 118°16'2 1.1
2017-Oct-21 23:58N 33°46' W 118°16'0 0.0
2017-Oct-21 23:28N 33°46' W 118°16'1 2.0
2017-Oct-21 23:00N 33°45' W 118°16'1 2.0
2017-Oct-21 22:26N 33°44' W 118°16'2 4.2
2017-Oct-21 21:59N 33°43' W 118°15'1 3.0
2017-Oct-21 21:30N 33°44' W 118°16'0 0.0
2017-Oct-21 21:00N 33°44' W 118°16'0 0.0
2017-Oct-21 20:25N 33°44' W 118°16'0 0.0
2017-Oct-21 19:58N 33°44' W 118°16'0 0.0
2017-Oct-21 19:29N 33°44' W 118°16'0 0.0
2017-Oct-21 18:59N 33°44' W 118°16'0 0.0
2017-Oct-21 18:27N 33°44' W 118°16'0 0.0
2017-Oct-21 17:59N 33°44' W 118°16'0 0.0
2017-Oct-21 17:28N 33°44' W 118°16'0 0.0
2017-Oct-21 16:53N 33°44' W 118°16'0 0.0
2017-Oct-21 16:29N 33°44' W 118°16'0 0.0
2017-Oct-21 15:50N 33°44' W 118°16'0 0.0
2017-Oct-21 09:39N 33°44' W 118°16'0 0.0
2017-Oct-21 09:25N 33°44' W 118°16'0 0.0
2017-Oct-21 08:56N 33°44' W 118°16'0 0.0
2017-Oct-21 08:23N 33°44' W 118°16'0 0.0
2017-Oct-21 06:50N 33°44' W 118°16'0 0.0
2017-Oct-21 06:06N 33°44' W 118°16'0 0.0
2017-Oct-21 05:42N 33°44' W 118°16'0 0.0
2017-Oct-21 04:00N 33°44' W 118°16'0 0.0
2017-Oct-21 01:36N 33°44' W 118°16'0 0.0
2017-Oct-21 01:15N 33°44' W 118°16'0 0.0
2017-Oct-21 00:58N 33°44' W 118°16'0 0.0
2017-Oct-21 00:20N 33°44' W 118°16'0 0.0
2017-Oct-20 23:49N 33°44' W 118°16'0 0.0
2017-Oct-20 23:11N 33°44' W 118°16'0 0.0
2017-Oct-20 22:59N 33°44' W 118°16'0 0.0
2017-Oct-20 22:30N 33°44' W 118°16'0 0.0
2017-Oct-20 21:59N 33°44' W 118°16'0 0.0
2017-Oct-20 21:28N 33°44' W 118°16'0 0.0
2017-Oct-20 20:44N 33°44' W 118°16'0 0.0
2017-Oct-20 20:18N 33°44' W 118°16'0 0.0
2017-Oct-20 20:00N 33°44' W 118°16'0 0.0
2017-Oct-20 19:30N 33°44' W 118°16'0 0.0
2017-Oct-20 18:59N 33°44' W 118°16'0 0.0
2017-Oct-20 18:30N 33°44' W 118°16'0 0.0
2017-Oct-20 18:00N 33°44' W 118°16'0 0.0
2017-Oct-20 17:27N 33°44' W 118°16'0 0.0
2017-Oct-20 16:58N 33°44' W 118°16'0 0.0
2017-Oct-20 16:27N 33°44' W 118°16'0 0.0
2017-Oct-20 16:00N 33°44' W 118°16'0 0.0
2017-Oct-20 15:26N 33°44' W 118°16'0 0.0
2017-Oct-20 15:00N 33°44' W 118°16'0 0.0
2017-Oct-20 14:13N 33°44' W 118°16'0 0.0
2017-Oct-20 13:23N 33°44' W 118°16'0 0.0
2017-Oct-20 12:57N 33°44' W 118°16'0 0.0
2017-Oct-20 10:00N 33°44' W 118°16'0 0.0
2017-Oct-20 06:32N 33°44' W 118°16'0 0.0
2017-Oct-20 05:32N 33°44' W 118°16'0 0.0
2017-Oct-20 05:30N 33°44' W 118°16'0 0.0
2017-Oct-20 04:51N 33°44' W 118°16'0 0.0
2017-Oct-20 02:43N 33°44' W 118°16'0 0.0
2017-Oct-20 02:25N 33°44' W 118°16'0 0.0
2017-Oct-20 01:40N 33°44' W 118°16'0 0.0
2017-Oct-20 01:09N 33°44' W 118°16'0 0.0
2017-Oct-20 00:59N 33°44' W 118°16'0 0.0
2017-Oct-20 00:30N 33°44' W 118°16'0 0.0
2017-Oct-20 00:00N 33°44' W 118°16'0 0.0
2017-Oct-19 23:24N 33°44' W 118°16'0 0.0
2017-Oct-19 22:56N 33°44' W 118°16'0 0.0
2017-Oct-19 22:30N 33°44' W 118°16'0 0.0
2017-Oct-19 21:59N 33°44' W 118°16'0 0.0
2017-Oct-19 21:27N 33°44' W 118°16'0 0.0
2017-Oct-19 20:58N 33°44' W 118°16'0 0.0
2017-Oct-19 20:30N 33°44' W 118°16'0 0.0
2017-Oct-19 19:58N 33°44' W 118°16'0 0.0
2017-Oct-19 19:25N 33°44' W 118°16'0 0.0
2017-Oct-19 18:52N 33°44' W 118°16'0 0.0
2017-Oct-19 18:23N 33°44' W 118°16'0 0.0
2017-Oct-19 17:59N 33°44' W 118°16'0 0.0
2017-Oct-19 17:25N 33°44' W 118°16'0 0.0
2017-Oct-19 16:46N 33°44' W 118°16'0 0.0
2017-Oct-19 15:52N 33°44' W 118°16'0 0.0
2017-Oct-19 15:30N 33°44' W 118°16'  

Dump ship's entire track history